Time;durP1;ratioP1;P1;durP2;ratioP2;P2;SDS_P1;SDS_P2;PMS_P1;PMS_P2;Temp;Humidity;BMP_temperature;BMP_pressure;BME280_temperature;BME280_humidity;BME280_pressure;Samples;Min_cycle;Max_cycle;Signal;HPM_P1;HPM_P2
2022/03/30 00:01:30;;;;;;;23.83;11.98;;;;;;;;;;5033662;28;20378;-68
2022/03/30 00:03:57;;;;;;;27.90;13.10;;;;;;;;;;5026579;28;20049;-68
2022/03/30 00:06:23;;;;;;;29.92;13.40;;;;;;;;;;5017488;28;20046;-68
2022/03/30 00:08:49;;;;;;;20.95;11.50;;;;;;;;;;5022611;28;20052;-68
2022/03/30 00:11:16;;;;;;;24.15;12.00;;;;;;;;;;5019133;28;20053;-68
2022/03/30 00:13:42;;;;;;;27.13;13.10;;;;;;;;;;5025244;28;20071;-68
2022/03/30 00:16:11;;;;;;;26.05;12.27;;;;;;;;;;5024336;28;20100;-68
2022/03/30 00:18:37;;;;;;;23.20;11.70;;;;;;;;;;5030370;28;20080;-68
2022/03/30 00:21:04;;;;;;;26.60;12.45;;;;;;;;;;5037777;28;20044;-68
2022/03/30 00:23:30;;;;;;;23.90;12.27;;;;;;;;;;5028059;28;20046;-68
2022/03/30 00:25:56;;;;;;;24.38;12.65;;;;;;;;;;5043625;28;20032;-68
2022/03/30 00:28:27;;;;;;;25.95;12.60;;;;;;;;;;5029839;28;20187;-68
2022/03/30 00:30:54;;;;;;;29.85;12.48;;;;;;;;;;5038255;28;20049;-68
2022/03/30 00:33:20;;;;;;;28.02;11.48;;;;;;;;;;5045185;28;20052;-68
2022/03/30 00:35:47;;;;;;;23.13;11.48;;;;;;;;;;5019627;28;20259;-68
2022/03/30 00:38:13;;;;;;;26.67;12.27;;;;;;;;;;5037342;28;20045;-68
2022/03/30 00:40:40;;;;;;;26.38;12.63;;;;;;;;;;5034944;28;20409;-68
2022/03/30 00:43:06;;;;;;;30.90;11.80;;;;;;;;;;5050342;28;20048;-68
2022/03/30 00:45:33;;;;;;;29.60;12.43;;;;;;;;;;5033863;28;20053;-68
2022/03/30 00:47:59;;;;;;;25.48;11.50;;;;;;;;;;5032195;28;20048;-69
2022/03/30 00:50:26;;;;;;;26.30;11.60;;;;;;;;;;5033193;28;20254;-68
2022/03/30 00:52:56;;;;;;;27.83;11.98;;;;;;;;;;5028524;28;20055;-68
2022/03/30 00:55:24;;;;;;;24.98;11.38;;;;;;;;;;5037396;28;20049;-68
2022/03/30 00:57:52;;;;;;;29.20;11.27;;;;;;;;;;5038305;28;20045;-68
2022/03/30 01:00:19;;;;;;;28.38;12.13;;;;;;;;;;5043143;28;20044;-68
2022/03/30 01:02:48;;;;;;;20.73;10.82;;;;;;;;;;5025372;28;20509;-69
2022/03/30 01:05:14;;;;;;;24.63;12.00;;;;;;;;;;5029540;28;20049;-68
2022/03/30 01:07:41;;;;;;;24.70;10.85;;;;;;;;;;5012583;28;20050;-68
2022/03/30 01:10:08;;;;;;;28.25;11.77;;;;;;;;;;5029366;28;20056;-68
2022/03/30 01:12:38;;;;;;;27.98;11.00;;;;;;;;;;5042404;28;20048;-68
2022/03/30 01:15:09;;;;;;;23.27;11.05;;;;;;;;;;5040916;28;20048;-69
2022/03/30 01:17:37;;;;;;;26.38;11.18;;;;;;;;;;5037289;28;20055;-68
2022/03/30 01:20:04;;;;;;;25.43;11.90;;;;;;;;;;5035408;28;20086;-68
2022/03/30 01:22:30;;;;;;;30.80;12.02;;;;;;;;;;5026335;28;20293;-68
2022/03/30 01:24:57;;;;;;;30.00;11.65;;;;;;;;;;5034221;28;20271;-68
2022/03/30 01:27:23;;;;;;;25.80;10.98;;;;;;;;;;5029475;28;20052;-68
2022/03/30 01:32:36;;;;;;;30.40;10.35;;;;;;;;;;5029848;28;20513;-68
2022/03/30 01:35:03;;;;;;;28.70;11.65;;;;;;;;;;5034778;28;20045;-69
2022/03/30 01:37:31;;;;;;;28.83;11.80;;;;;;;;;;5036827;28;20047;-68
2022/03/30 01:39:59;;;;;;;28.00;11.25;;;;;;;;;;5034183;28;20088;-68
2022/03/30 01:42:26;;;;;;;28.33;11.40;;;;;;;;;;5037940;28;20050;-68
2022/03/30 01:44:52;;;;;;;22.05;10.02;;;;;;;;;;5027609;28;20064;-68
2022/03/30 01:47:19;;;;;;;19.05;10.23;;;;;;;;;;5037354;28;20049;-68
2022/03/30 01:49:46;;;;;;;28.50;11.25;;;;;;;;;;5028185;28;20052;-68
2022/03/30 01:52:15;;;;;;;26.45;11.73;;;;;;;;;;5036012;28;20057;-68
2022/03/30 01:54:43;;;;;;;28.33;12.10;;;;;;;;;;5042827;28;20525;-68
2022/03/30 01:57:12;;;;;;;23.80;10.73;;;;;;;;;;5028308;28;20064;-68
2022/03/30 01:59:42;;;;;;;22.90;10.48;;;;;;;;;;5037890;28;20060;-67
2022/03/30 02:02:09;;;;;;;24.67;10.48;;;;;;;;;;5028714;28;20049;-68
2022/03/30 02:04:38;;;;;;;29.50;11.07;;;;;;;;;;5036249;28;20462;-68
2022/03/30 02:07:05;;;;;;;20.45;9.35;;;;;;;;;;5033966;28;20094;-68
2022/03/30 02:09:32;;;;;;;26.20;10.40;;;;;;;;;;5036446;28;20517;-68
2022/03/30 02:11:59;;;;;;;22.05;9.88;;;;;;;;;;5026509;28;20496;-69
2022/03/30 02:14:26;;;;;;;23.98;10.85;;;;;;;;;;5024525;28;20042;-69
2022/03/30 02:16:52;;;;;;;24.10;11.27;;;;;;;;;;5044253;28;20049;-68
2022/03/30 02:19:19;;;;;;;27.98;11.77;;;;;;;;;;5040830;28;20045;-69
2022/03/30 02:21:45;;;;;;;25.73;10.15;;;;;;;;;;5035024;28;20489;-68
2022/03/30 02:24:11;;;;;;;30.48;10.95;;;;;;;;;;5028022;28;20053;-68
2022/03/30 02:26:38;;;;;;;24.25;11.23;;;;;;;;;;5038260;28;20040;-68
2022/03/30 02:29:04;;;;;;;27.42;10.43;;;;;;;;;;5027186;28;20050;-68
2022/03/30 02:31:31;;;;;;;26.92;11.52;;;;;;;;;;5031104;28;20151;-69
2022/03/30 02:33:57;;;;;;;30.70;12.20;;;;;;;;;;5040157;28;20053;-69
2022/03/30 02:36:23;;;;;;;22.60;10.18;;;;;;;;;;5035156;28;20059;-67
2022/03/30 02:38:50;;;;;;;25.48;10.77;;;;;;;;;;5036202;28;20516;-69
2022/03/30 02:41:16;;;;;;;23.83;9.70;;;;;;;;;;5035114;28;20571;-70
2022/03/30 02:43:42;;;;;;;27.52;12.00;;;;;;;;;;5036467;28;20049;-69
2022/03/30 02:46:09;;;;;;;28.73;11.27;;;;;;;;;;5031397;28;20055;-69
2022/03/30 02:48:37;;;;;;;22.80;9.98;;;;;;;;;;5040656;28;20045;-69
2022/03/30 02:51:04;;;;;;;25.20;10.63;;;;;;;;;;5038246;28;20441;-69
2022/03/30 02:53:31;;;;;;;22.90;10.52;;;;;;;;;;5022026;28;20053;-69
2022/03/30 02:55:58;;;;;;;21.02;10.38;;;;;;;;;;5029049;28;20071;-70
2022/03/30 02:58:24;;;;;;;27.52;10.18;;;;;;;;;;5035170;28;20053;-70
2022/03/30 03:00:51;;;;;;;24.25;10.32;;;;;;;;;;5019461;28;20351;-70
2022/03/30 03:03:17;;;;;;;28.63;11.07;;;;;;;;;;5041599;28;20059;-70
2022/03/30 03:05:44;;;;;;;24.85;11.30;;;;;;;;;;5025744;28;20465;-70
2022/03/30 03:08:11;;;;;;;25.25;11.02;;;;;;;;;;5036360;28;20056;-70
2022/03/30 03:10:38;;;;;;;24.20;11.40;;;;;;;;;;5016261;28;20061;-70
2022/03/30 03:13:05;;;;;;;26.58;10.25;;;;;;;;;;5045615;28;20054;-70
2022/03/30 03:15:33;;;;;;;29.13;12.20;;;;;;;;;;5045479;28;20056;-70
2022/03/30 03:18:01;;;;;;;26.60;11.88;;;;;;;;;;5024171;28;20474;-70
2022/03/30 03:20:28;;;;;;;25.40;10.50;;;;;;;;;;5028917;28;20048;-70
2022/03/30 03:22:54;;;;;;;25.42;11.45;;;;;;;;;;5029465;28;20060;-70
2022/03/30 03:25:21;;;;;;;25.60;11.35;;;;;;;;;;5034732;28;20486;-70
2022/03/30 03:27:48;;;;;;;27.00;12.07;;;;;;;;;;5030655;28;20049;-70
2022/03/30 03:30:14;;;;;;;26.77;11.60;;;;;;;;;;5040524;28;20403;-70
2022/03/30 03:32:41;;;;;;;27.08;11.10;;;;;;;;;;5022984;28;20049;-70
2022/03/30 03:35:09;;;;;;;25.52;11.15;;;;;;;;;;5015413;28;20441;-70
2022/03/30 03:37:36;;;;;;;33.55;12.73;;;;;;;;;;5037760;28;20048;-70
2022/03/30 03:40:03;;;;;;;28.45;11.30;;;;;;;;;;5020077;28;20065;-70
2022/03/30 03:42:29;;;;;;;21.77;11.20;;;;;;;;;;5022502;28;20685;-70
2022/03/30 03:44:55;;;;;;;25.58;11.57;;;;;;;;;;5029286;28;20349;-70
2022/03/30 03:47:22;;;;;;;25.73;11.63;;;;;;;;;;5034566;28;20290;-70
2022/03/30 03:49:48;;;;;;;28.58;11.50;;;;;;;;;;5044577;28;20048;-70
2022/03/30 03:52:14;;;;;;;30.95;13.68;;;;;;;;;;5041405;28;20049;-70
2022/03/30 03:54:41;;;;;;;25.58;11.68;;;;;;;;;;5040634;28;20049;-70
2022/03/30 03:57:08;;;;;;;24.92;11.77;;;;;;;;;;5029714;28;20045;-70
2022/03/30 03:59:35;;;;;;;28.30;12.80;;;;;;;;;;5032054;28;20069;-69
2022/03/30 04:02:04;;;;;;;25.77;12.18;;;;;;;;;;5035256;28;20135;-70
2022/03/30 04:04:31;;;;;;;24.73;11.05;;;;;;;;;;5040050;28;20042;-69
2022/03/30 04:06:58;;;;;;;25.50;11.57;;;;;;;;;;5019726;28;20050;-70
2022/03/30 04:09:24;;;;;;;29.58;11.82;;;;;;;;;;5031536;28;20490;-70
2022/03/30 04:11:52;;;;;;;29.08;11.75;;;;;;;;;;5028529;28;20607;-68
2022/03/30 04:14:19;;;;;;;32.22;12.65;;;;;;;;;;5023591;28;20041;-69
2022/03/30 04:16:46;;;;;;;29.67;11.80;;;;;;;;;;5039370;28;20049;-69
2022/03/30 04:19:15;;;;;;;38.30;12.63;;;;;;;;;;5053506;28;20520;-70
2022/03/30 04:21:42;;;;;;;22.30;11.50;;;;;;;;;;5034883;28;20049;-71
2022/03/30 04:24:08;;;;;;;23.08;11.13;;;;;;;;;;5039026;28;20053;-70
2022/03/30 04:26:35;;;;;;;27.77;11.38;;;;;;;;;;5030451;28;20481;-70
2022/03/30 04:29:02;;;;;;;21.13;10.85;;;;;;;;;;5034218;28;20059;-70
2022/03/30 04:31:28;;;;;;;26.45;12.18;;;;;;;;;;5042443;28;20496;-70
2022/03/30 04:33:54;;;;;;;25.38;11.82;;;;;;;;;;5041256;28;20055;-70
2022/03/30 04:36:21;;;;;;;26.63;10.82;;;;;;;;;;5031641;28;20037;-70
2022/03/30 04:38:47;;;;;;;29.02;11.13;;;;;;;;;;5029500;28;20049;-70
2022/03/30 04:41:13;;;;;;;24.83;11.32;;;;;;;;;;5037055;28;20068;-69
2022/03/30 04:43:40;;;;;;;25.42;10.75;;;;;;;;;;5024902;28;20052;-70
2022/03/30 04:46:08;;;;;;;29.58;12.02;;;;;;;;;;5040510;28;20049;-70
2022/03/30 04:48:35;;;;;;;28.45;11.68;;;;;;;;;;5047195;28;20056;-70
2022/03/30 04:51:02;;;;;;;32.42;12.05;;;;;;;;;;5039426;28;20136;-70
2022/03/30 04:53:28;;;;;;;24.40;12.00;;;;;;;;;;5044619;28;20079;-69
2022/03/30 04:55:54;;;;;;;24.85;12.00;;;;;;;;;;5024210;28;20062;-70
2022/03/30 04:58:21;;;;;;;26.10;11.25;;;;;;;;;;5046040;28;20052;-70
2022/03/30 05:00:47;;;;;;;31.65;13.82;;;;;;;;;;5024411;28;20061;-70
2022/03/30 05:03:14;;;;;;;31.02;11.43;;;;;;;;;;5038570;28;20469;-69
2022/03/30 05:05:40;;;;;;;26.90;11.80;;;;;;;;;;5044230;28;20413;-70
2022/03/30 05:08:07;;;;;;;27.50;11.60;;;;;;;;;;5024130;28;20059;-70
2022/03/30 05:10:33;;;;;;;25.45;11.60;;;;;;;;;;5033065;28;20048;-70
2022/03/30 05:13:00;;;;;;;30.50;12.18;;;;;;;;;;5030661;28;20049;-70
2022/03/30 05:15:28;;;;;;;33.92;12.10;;;;;;;;;;5033194;28;20084;-70
2022/03/30 05:17:55;;;;;;;25.88;11.43;;;;;;;;;;5029838;28;20052;-70
2022/03/30 05:20:21;;;;;;;27.45;12.00;;;;;;;;;;5037026;28;20053;-70
2022/03/30 05:22:47;;;;;;;38.72;11.30;;;;;;;;;;5030311;28;20069;-70
2022/03/30 05:25:15;;;;;;;32.33;11.15;;;;;;;;;;5026443;28;20040;-69
2022/03/30 05:27:42;;;;;;;26.40;11.70;;;;;;;;;;5043888;28;20405;-70
2022/03/30 05:30:09;;;;;;;29.33;10.43;;;;;;;;;;5029717;28;20430;-70
2022/03/30 05:32:35;;;;;;;29.70;12.50;;;;;;;;;;5028234;28;20060;-70
2022/03/30 05:35:03;;;;;;;22.77;9.95;;;;;;;;;;5011993;28;20487;-70
2022/03/30 05:37:30;;;;;;;27.48;11.60;;;;;;;;;;5029296;28;20049;-70
2022/03/30 05:39:57;;;;;;;26.73;11.20;;;;;;;;;;5033742;28;20045;-70
2022/03/30 05:42:23;;;;;;;26.30;11.25;;;;;;;;;;5035335;28;20052;-70
2022/03/30 05:44:50;;;;;;;25.95;11.15;;;;;;;;;;5040315;28;20453;-70
2022/03/30 05:47:16;;;;;;;26.42;11.90;;;;;;;;;;5036014;28;20056;-70
2022/03/30 05:49:43;;;;;;;35.45;14.52;;;;;;;;;;5031632;28;20049;-70
2022/03/30 05:52:10;;;;;;;46.83;18.92;;;;;;;;;;5023566;28;20056;-70
2022/03/30 05:54:39;;;;;;;31.98;14.15;;;;;;;;;;5037834;28;20393;-69
2022/03/30 05:57:06;;;;;;;30.05;11.70;;;;;;;;;;5046428;28;20075;-70
2022/03/30 05:59:40;;;;;;;37.63;13.52;;;;;;;;;;5034184;28;20049;-70
2022/03/30 06:02:08;;;;;;;34.45;12.57;;;;;;;;;;5038543;28;20057;-70
2022/03/30 06:04:34;;;;;;;34.47;12.32;;;;;;;;;;5024808;28;20036;-70
2022/03/30 06:07:01;;;;;;;34.10;12.38;;;;;;;;;;5037150;28;20046;-70
2022/03/30 06:09:27;;;;;;;24.80;11.63;;;;;;;;;;5035006;28;20045;-70
2022/03/30 06:12:06;;;;;;;26.58;12.38;;;;;;;;;;5034658;28;20161;-70
2022/03/30 06:14:33;;;;;;;28.45;11.77;;;;;;;;;;5029893;28;20045;-70
2022/03/30 06:17:03;;;;;;;35.38;12.90;;;;;;;;;;5023583;28;20132;-70
2022/03/30 06:19:30;;;;;;;29.65;12.25;;;;;;;;;;5033836;28;20516;-70
2022/03/30 06:21:57;;;;;;;31.25;12.27;;;;;;;;;;5030376;28;20407;-70
2022/03/30 06:24:23;;;;;;;31.55;12.00;;;;;;;;;;5036857;28;20641;-71
2022/03/30 06:26:50;;;;;;;24.67;12.18;;;;;;;;;;5034916;28;20553;-70
2022/03/30 06:29:16;;;;;;;26.20;12.88;;;;;;;;;;5039840;28;20116;-69
2022/03/30 06:31:43;;;;;;;32.72;13.50;;;;;;;;;;5034880;28;20059;-68
2022/03/30 06:34:09;;;;;;;28.15;12.02;;;;;;;;;;5031162;28;20598;-70
2022/03/30 06:36:37;;;;;;;26.42;12.18;;;;;;;;;;5049340;28;20049;-68
2022/03/30 06:39:05;;;;;;;29.85;12.27;;;;;;;;;;5023071;28;20057;-70
2022/03/30 06:41:31;;;;;;;27.90;11.98;;;;;;;;;;5037973;28;20658;-69
2022/03/30 06:43:57;;;;;;;29.40;10.57;;;;;;;;;;5025874;28;20048;-69
2022/03/30 06:46:24;;;;;;;23.30;11.15;;;;;;;;;;5015988;28;20072;-69
2022/03/30 06:48:50;;;;;;;23.27;10.48;;;;;;;;;;5027017;28;20056;-71
2022/03/30 06:51:17;;;;;;;23.55;10.52;;;;;;;;;;5033945;28;20045;-70
2022/03/30 06:53:43;;;;;;;20.25;10.38;;;;;;;;;;5030056;28;20053;-70
2022/03/30 06:56:10;;;;;;;24.15;10.05;;;;;;;;;;5022527;28;20049;-68
2022/03/30 06:58:36;;;;;;;25.05;10.48;;;;;;;;;;5033430;28;20044;-68
2022/03/30 07:01:02;;;;;;;24.15;8.73;;;;;;;;;;5030907;28;20037;-68
2022/03/30 07:03:29;;;;;;;30.33;10.25;;;;;;;;;;5028739;28;20136;-68
2022/03/30 07:05:56;;;;;;;20.10;10.27;;;;;;;;;;5041370;28;20136;-69
2022/03/30 07:11:07;;;;;;;24.70;9.20;;;;;;;;;;5023700;28;20263;-69
2022/03/30 07:13:33;;;;;;;20.05;10.23;;;;;;;;;;5034989;28;20059;-68
2022/03/30 07:16:00;;;;;;;22.40;10.35;;;;;;;;;;5039325;28;20065;-69
2022/03/30 07:18:27;;;;;;;23.90;10.18;;;;;;;;;;5027876;28;20475;-69
2022/03/30 07:20:53;;;;;;;26.35;10.07;;;;;;;;;;5020958;28;20060;-69
2022/03/30 07:23:20;;;;;;;26.20;10.80;;;;;;;;;;5029392;28;20473;-69
2022/03/30 07:25:47;;;;;;;26.13;9.95;;;;;;;;;;5008858;28;20049;-68
2022/03/30 07:28:15;;;;;;;25.88;10.80;;;;;;;;;;5022082;28;20042;-68
2022/03/30 07:30:43;;;;;;;25.08;10.45;;;;;;;;;;5026112;28;20070;-68
2022/03/30 07:33:09;;;;;;;26.80;9.93;;;;;;;;;;5024226;28;20049;-68
2022/03/30 07:35:39;;;;;;;26.80;10.25;;;;;;;;;;5032119;28;20061;-68
2022/03/30 07:38:05;;;;;;;24.27;9.85;;;;;;;;;;5044440;28;20135;-69
2022/03/30 07:40:32;;;;;;;24.67;10.80;;;;;;;;;;5024532;28;20057;-68
2022/03/30 07:42:59;;;;;;;20.48;10.40;;;;;;;;;;5027587;28;20467;-68
2022/03/30 07:45:25;;;;;;;17.08;9.35;;;;;;;;;;5043110;28;20565;-68
2022/03/30 07:47:52;;;;;;;21.20;10.07;;;;;;;;;;5031976;28;20041;-69
2022/03/30 07:50:18;;;;;;;25.83;10.43;;;;;;;;;;5024424;28;20126;-68
2022/03/30 07:52:46;;;;;;;24.13;10.20;;;;;;;;;;5040494;28;20306;-68
2022/03/30 07:55:12;;;;;;;23.25;10.00;;;;;;;;;;5026541;28;20676;-69
2022/03/30 07:57:42;;;;;;;22.27;9.93;;;;;;;;;;5033147;28;20138;-69
2022/03/30 08:00:12;;;;;;;22.92;10.18;;;;;;;;;;5020449;28;20565;-68
2022/03/30 08:02:38;;;;;;;23.80;10.25;;;;;;;;;;5032801;28;20057;-69
2022/03/30 08:05:05;;;;;;;28.75;9.85;;;;;;;;;;5028064;28;20147;-69
2022/03/30 08:07:32;;;;;;;20.67;9.20;;;;;;;;;;5017097;28;20045;-69
2022/03/30 08:09:58;;;;;;;16.88;8.80;;;;;;;;;;5025719;28;20049;-69
2022/03/30 08:12:25;;;;;;;23.45;9.85;;;;;;;;;;5018488;28;20056;-68
2022/03/30 08:14:51;;;;;;;20.60;9.82;;;;;;;;;;5030530;28;20045;-69
2022/03/30 08:17:18;;;;;;;20.85;9.23;;;;;;;;;;5022184;28;20577;-69
2022/03/30 08:19:44;;;;;;;18.23;8.88;;;;;;;;;;5034384;28;20060;-70
2022/03/30 08:22:26;;;;;;;16.35;8.05;;;;;;;;;;5029459;28;20053;-69
2022/03/30 08:24:53;;;;;;;21.45;9.25;;;;;;;;;;5019136;28;20533;-69
2022/03/30 08:27:21;;;;;;;21.70;8.55;;;;;;;;;;5032372;28;20076;-69
2022/03/30 08:29:48;;;;;;;20.25;8.63;;;;;;;;;;5033697;28;20445;-70
2022/03/30 08:32:15;;;;;;;20.33;8.60;;;;;;;;;;5029782;28;20486;-69
2022/03/30 08:34:42;;;;;;;20.02;8.23;;;;;;;;;;5024570;28;20021;-69
2022/03/30 08:37:09;;;;;;;17.67;8.52;;;;;;;;;;5030591;28;20506;-69
2022/03/30 08:39:35;;;;;;;17.15;8.77;;;;;;;;;;5032663;28;20080;-70
2022/03/30 08:42:06;;;;;;;23.63;9.95;;;;;;;;;;5033926;28;20062;-69
2022/03/30 08:44:33;;;;;;;24.20;10.38;;;;;;;;;;5025887;28;20050;-69
2022/03/30 08:46:59;;;;;;;25.00;10.07;;;;;;;;;;5037318;28;20052;-70
2022/03/30 08:49:27;;;;;;;21.77;9.77;;;;;;;;;;5037976;28;20049;-69
2022/03/30 08:51:54;;;;;;;19.77;9.03;;;;;;;;;;5030304;28;20052;-70
2022/03/30 08:54:21;;;;;;;28.17;10.55;;;;;;;;;;5035016;28;20494;-69
2022/03/30 08:56:47;;;;;;;21.95;9.38;;;;;;;;;;5023702;28;20058;-69
2022/03/30 08:59:18;;;;;;;19.33;10.27;;;;;;;;;;5017187;28;20049;-69
2022/03/30 09:01:45;;;;;;;22.23;9.27;;;;;;;;;;5025061;28;20426;-69
2022/03/30 09:04:13;;;;;;;21.05;9.90;;;;;;;;;;5020234;28;20067;-70
2022/03/30 09:06:41;;;;;;;20.88;8.20;;;;;;;;;;5028051;28;20071;-69
2022/03/30 09:09:08;;;;;;;21.17;9.15;;;;;;;;;;5027121;28;20049;-69
2022/03/30 09:11:53;;;;;;;18.73;8.63;;;;;;;;;;5024116;28;20707;-69
2022/03/30 09:14:20;;;;;;;19.48;9.40;;;;;;;;;;5029884;28;20132;-69
2022/03/30 09:16:49;;;;;;;19.95;8.45;;;;;;;;;;5030789;28;20060;-70
2022/03/30 09:19:16;;;;;;;19.48;9.32;;;;;;;;;;5035262;28;20041;-69
2022/03/30 09:21:44;;;;;;;20.23;9.43;;;;;;;;;;5034061;28;20506;-70
2022/03/30 09:24:11;;;;;;;21.10;9.20;;;;;;;;;;5045691;28;21380;-69
2022/03/30 09:26:38;;;;;;;24.63;8.85;;;;;;;;;;5045001;28;20041;-69
2022/03/30 09:29:05;;;;;;;27.02;8.35;;;;;;;;;;5033145;28;20050;-69
2022/03/30 09:31:31;;;;;;;19.67;9.02;;;;;;;;;;5046700;28;20068;-69
2022/03/30 09:33:59;;;;;;;23.25;7.80;;;;;;;;;;5034993;28;20045;-69
2022/03/30 09:36:27;;;;;;;18.67;8.68;;;;;;;;;;5033989;28;20337;-69
2022/03/30 09:38:53;;;;;;;20.30;7.65;;;;;;;;;;5032797;28;20065;-69
2022/03/30 09:41:20;;;;;;;19.23;8.32;;;;;;;;;;5029751;28;20418;-69
2022/03/30 09:43:46;;;;;;;14.80;8.15;;;;;;;;;;5032129;28;20059;-69
2022/03/30 09:46:15;;;;;;;17.95;8.77;;;;;;;;;;5038209;28;20071;-69
2022/03/30 09:49:04;;;;;;;17.77;8.32;;;;;;;;;;5031304;28;20041;-69
2022/03/30 09:51:31;;;;;;;14.63;7.78;;;;;;;;;;5033981;28;20077;-69
2022/03/30 09:53:57;;;;;;;14.52;8.07;;;;;;;;;;5035260;28;20421;-69
2022/03/30 09:56:24;;;;;;;16.52;7.45;;;;;;;;;;5023742;28;20053;-69
2022/03/30 09:59:00;;;;;;;14.50;7.63;;;;;;;;;;5038924;28;20520;-69
2022/03/30 10:01:32;;;;;;;12.80;7.10;;;;;;;;;;5042436;28;20048;-69
2022/03/30 10:04:00;;;;;;;13.70;7.50;;;;;;;;;;5035802;28;20155;-69
2022/03/30 10:06:32;;;;;;;16.50;7.03;;;;;;;;;;5042749;28;20541;-70
2022/03/30 10:09:03;;;;;;;10.43;6.35;;;;;;;;;;5029255;28;20506;-69
2022/03/30 10:11:29;;;;;;;14.32;6.07;;;;;;;;;;5036655;28;20060;-70
2022/03/30 10:14:00;;;;;;;11.88;5.97;;;;;;;;;;5034530;28;20056;-70
2022/03/30 10:16:45;;;;;;;10.90;6.43;;;;;;;;;;5041617;28;20174;-69
2022/03/30 10:19:12;;;;;;;12.63;6.65;;;;;;;;;;5035463;28;20056;-70
2022/03/30 10:21:47;;;;;;;11.43;5.85;;;;;;;;;;5036311;28;20569;-71
2022/03/30 10:24:32;;;;;;;16.33;6.57;;;;;;;;;;5028312;28;20145;-71
2022/03/30 10:27:07;;;;;;;11.68;6.22;;;;;;;;;;5031164;28;20738;-71
2022/03/30 10:29:33;;;;;;;10.02;6.10;;;;;;;;;;5042826;28;20052;-71
2022/03/30 10:32:19;;;;;;;12.15;6.13;;;;;;;;;;5026427;28;20045;-70
2022/03/30 10:34:58;;;;;;;13.57;5.50;;;;;;;;;;5040759;28;20053;-70
2022/03/30 10:37:25;;;;;;;13.73;5.82;;;;;;;;;;5029267;28;20053;-69
2022/03/30 10:39:55;;;;;;;14.50;5.88;;;;;;;;;;5037823;28;20064;-70
2022/03/30 10:42:22;;;;;;;11.32;6.28;;;;;;;;;;5034339;28;20045;-70
2022/03/30 10:44:57;;;;;;;10.55;6.00;;;;;;;;;;5038848;28;20049;-70
2022/03/30 10:47:25;;;;;;;9.57;5.88;;;;;;;;;;5041484;28;20049;-70
2022/03/30 10:49:55;;;;;;;13.05;6.22;;;;;;;;;;5021841;28;20628;-69
2022/03/30 10:52:40;;;;;;;13.23;5.72;;;;;;;;;;5046852;28;20049;-70
2022/03/30 10:55:13;;;;;;;12.35;6.00;;;;;;;;;;5028060;28;20691;-69
2022/03/30 10:57:43;;;;;;;10.02;5.95;;;;;;;;;;5053398;28;20099;-69
2022/03/30 11:00:16;;;;;;;11.88;6.45;;;;;;;;;;5027067;28;20522;-70
2022/03/30 11:02:42;;;;;;;11.55;6.50;;;;;;;;;;5032804;28;20053;-69
2022/03/30 11:05:18;;;;;;;10.00;6.30;;;;;;;;;;5051608;28;20103;-69
2022/03/30 11:07:44;;;;;;;12.43;6.60;;;;;;;;;;5028563;28;20053;-69
2022/03/30 11:10:14;;;;;;;13.27;6.53;;;;;;;;;;5044597;28;20048;-69
2022/03/30 11:13:02;;;;;;;10.48;6.03;;;;;;;;;;5037243;28;20089;-68
2022/03/30 11:15:31;;;;;;;12.18;6.25;;;;;;;;;;5034159;28;20057;-72
2022/03/30 11:18:17;;;;;;;10.88;6.50;;;;;;;;;;5022174;28;20048;-70
2022/03/30 11:21:03;;;;;;;13.65;6.38;;;;;;;;;;5038782;28;20545;-70
2022/03/30 11:23:30;;;;;;;14.02;6.47;;;;;;;;;;5026295;28;20048;-71
2022/03/30 11:25:56;;;;;;;10.32;5.82;;;;;;;;;;5039933;28;20139;-72
2022/03/30 11:28:40;;;;;;;11.90;6.32;;;;;;;;;;5036982;28;20045;-68
2022/03/30 11:31:32;;;;;;;14.27;7.00;;;;;;;;;;5017167;28;20053;-69
2022/03/30 11:34:18;;;;;;;13.60;6.18;;;;;;;;;;5030857;28;20750;-69
2022/03/30 11:36:44;;;;;;;16.60;6.80;;;;;;;;;;5029024;28;20230;-69
2022/03/30 11:39:11;;;;;;;12.07;6.38;;;;;;;;;;5041290;28;20390;-69
2022/03/30 11:41:38;;;;;;;10.23;6.22;;;;;;;;;;5023990;28;20057;-69
2022/03/30 11:46:51;;;;;;;11.73;5.90;;;;;;;;;;5022371;28;20477;-71
2022/03/30 11:49:20;;;;;;;;;;;;;;;;;;5016943;28;20045;-69
2022/03/30 11:51:46;;;;;;;12.13;5.35;;;;;;;;;;5037651;28;20107;-69
2022/03/30 11:54:14;;;;;;;9.98;5.50;;;;;;;;;;4975056;28;1418802;-69
2022/03/30 11:56:40;;;;;;;10.30;5.90;;;;;;;;;;5024495;28;20045;-69
2022/03/30 11:59:06;;;;;;;8.45;5.05;;;;;;;;;;5020845;28;20076;-68
2022/03/30 12:01:39;;;;;;;8.85;4.88;;;;;;;;;;5029837;28;20049;-70
2022/03/30 12:04:05;;;;;;;11.25;5.43;;;;;;;;;;5023764;28;20072;-69
2022/03/30 12:06:32;;;;;;;8.55;4.75;;;;;;;;;;5028589;28;20112;-72
2022/03/30 12:08:58;;;;;;;7.47;4.63;;;;;;;;;;5029677;28;20058;-70
2022/03/30 12:11:27;;;;;;;10.07;4.80;;;;;;;;;;5014609;28;20053;-69
2022/03/30 12:13:55;;;;;;;7.05;4.22;;;;;;;;;;5028467;28;20491;-67
2022/03/30 12:16:22;;;;;;;9.27;4.30;;;;;;;;;;5018909;28;20049;-66
2022/03/30 12:18:49;;;;;;;9.93;5.28;;;;;;;;;;5031126;28;20419;-68
2022/03/30 12:21:23;;;;;;;8.57;4.65;;;;;;;;;;5028596;28;20127;-68
2022/03/30 12:23:55;;;;;;;7.03;4.70;;;;;;;;;;5001659;28;20046;-65
2022/03/30 12:26:42;;;;;;;11.13;4.55;;;;;;;;;;5018691;28;20053;-66
2022/03/30 12:29:09;;;;;;;6.28;3.90;;;;;;;;;;5018942;28;20071;-66
2022/03/30 12:31:37;;;;;;;6.78;4.13;;;;;;;;;;5029375;28;20044;-68
2022/03/30 12:34:10;;;;;;;8.77;4.40;;;;;;;;;;5021026;28;20055;-66
2022/03/30 12:36:44;;;;;;;6.80;4.07;;;;;;;;;;5027884;28;20060;-67
2022/03/30 12:39:17;;;;;;;9.13;4.07;;;;;;;;;;5028405;28;20080;-67
2022/03/30 12:41:54;;;;;;;6.78;4.20;;;;;;;;;;5030564;28;20045;-67
2022/03/30 12:44:20;;;;;;;7.53;4.40;;;;;;;;;;5032122;28;20157;-67
2022/03/30 12:46:46;;;;;;;9.77;4.68;;;;;;;;;;5026103;28;20056;-68
2022/03/30 12:49:13;;;;;;;6.30;4.30;;;;;;;;;;5036844;28;20048;-68
2022/03/30 12:51:40;;;;;;;11.38;4.65;;;;;;;;;;5036427;28;20756;-68
2022/03/30 12:54:19;;;;;;;8.45;4.43;;;;;;;;;;5035681;28;20244;-67
2022/03/30 12:56:46;;;;;;;6.50;4.38;;;;;;;;;;5036326;28;20060;-67
2022/03/30 12:59:17;;;;;;;8.15;4.55;;;;;;;;;;5035180;28;20355;-67
2022/03/30 13:01:46;;;;;;;10.27;4.93;;;;;;;;;;5039096;28;20052;-68
2022/03/30 13:04:18;;;;;;;8.10;4.65;;;;;;;;;;5019873;28;20045;-67
2022/03/30 13:07:03;;;;;;;8.73;4.50;;;;;;;;;;5025380;28;20243;-68
2022/03/30 13:09:29;;;;;;;7.53;4.20;;;;;;;;;;5024472;28;20049;-67
2022/03/30 13:11:57;;;;;;;6.78;4.03;;;;;;;;;;5033750;28;20531;-67
2022/03/30 13:14:24;;;;;;;7.45;3.83;;;;;;;;;;5035066;28;20522;-67
2022/03/30 13:16:55;;;;;;;6.40;4.18;;;;;;;;;;5033141;28;20345;-68
2022/03/30 13:19:25;;;;;;;4.78;3.55;;;;;;;;;;5030555;28;20586;-68
2022/03/30 13:21:52;;;;;;;6.78;3.60;;;;;;;;;;5039027;28;20044;-67
2022/03/30 13:24:28;;;;;;;6.25;4.07;;;;;;;;;;5028973;28;20072;-68
2022/03/30 13:26:55;;;;;;;6.78;3.83;;;;;;;;;;5028575;28;20051;-67
2022/03/30 13:29:22;;;;;;;5.55;3.38;;;;;;;;;;5039540;28;20053;-67
2022/03/30 13:31:48;;;;;;;6.63;3.28;;;;;;;;;;5038393;28;20053;-67
2022/03/30 13:34:16;;;;;;;4.47;3.03;;;;;;;;;;5031225;28;20048;-68
2022/03/30 13:36:42;;;;;;;4.83;3.10;;;;;;;;;;5008674;28;20067;-67
2022/03/30 13:39:09;;;;;;;3.78;2.78;;;;;;;;;;5037667;28;20041;-67
2022/03/30 13:41:36;;;;;;;6.93;3.00;;;;;;;;;;5032978;28;20045;-67
2022/03/30 13:44:03;;;;;;;4.82;2.72;;;;;;;;;;5031830;28;20052;-67
2022/03/30 13:46:30;;;;;;;6.60;2.72;;;;;;;;;;5045579;28;20055;-67
2022/03/30 13:48:56;;;;;;;13.70;2.90;;;;;;;;;;5022020;28;20060;-67
2022/03/30 13:51:22;;;;;;;5.53;2.22;;;;;;;;;;5031251;28;20060;-67
2022/03/30 13:53:49;;;;;;;5.88;2.60;;;;;;;;;;5034639;28;20048;-67
2022/03/30 13:56:17;;;;;;;6.38;2.00;;;;;;;;;;5028100;28;20495;-67
2022/03/30 13:58:53;;;;;;;4.10;2.42;;;;;;;;;;5031440;28;20526;-67
2022/03/30 14:01:21;;;;;;;4.75;2.10;;;;;;;;;;5025382;28;20649;-67
2022/03/30 14:03:48;;;;;;;3.35;2.15;;;;;;;;;;5020258;28;20057;-67
2022/03/30 14:06:14;;;;;;;7.88;2.47;;;;;;;;;;5023331;28;20055;-66
2022/03/30 14:08:40;;;;;;;4.70;1.88;;;;;;;;;;5030209;28;20058;-67
2022/03/30 14:11:08;;;;;;;3.22;2.08;;;;;;;;;;5028688;28;20064;-68
2022/03/30 14:13:34;;;;;;;2.13;1.80;;;;;;;;;;5024823;28;20049;-68
2022/03/30 14:16:01;;;;;;;3.63;2.00;;;;;;;;;;5028396;28;20060;-67
2022/03/30 14:18:28;;;;;;;2.80;1.80;;;;;;;;;;5012522;28;20131;-67
2022/03/30 14:20:56;;;;;;;3.60;1.80;;;;;;;;;;5042142;28;20079;-67
2022/03/30 14:23:22;;;;;;;2.25;1.92;;;;;;;;;;5040347;28;20584;-68
2022/03/30 14:25:49;;;;;;;2.80;2.22;;;;;;;;;;5043617;28;20049;-70
2022/03/30 14:28:15;;;;;;;4.20;2.53;;;;;;;;;;5032680;28;20472;-70
2022/03/30 14:30:42;;;;;;;4.43;1.75;;;;;;;;;;5021057;28;20535;-70
2022/03/30 14:33:09;;;;;;;2.78;1.50;;;;;;;;;;5032547;28;20046;-71
2022/03/30 14:35:36;;;;;;;2.58;1.40;;;;;;;;;;5023824;28;20049;-69
2022/03/30 14:38:08;;;;;;;2.65;1.80;;;;;;;;;;5034924;28;20057;-67
2022/03/30 14:40:35;;;;;;;3.38;1.60;;;;;;;;;;5043328;28;20528;-67